Hayden, New Mexico
Current Conditions -  °F | °C
As of 8:53 AM on Thursday 27 Nov 2014 (Local Time) from KDHT Reporting Station
Clear Clear  
Wind Chill: 34°   Ceiling: Unl
Heat Index: 42°   Visibility: 10mi
Dew Point: 27°   Wind: 17mph
Humidity: 55%   Direction: 210°SSW
Pressure: 30.39"   Gusts: NA
Location:  35.8947°N, 103.215°W
Report Text: KDHT 271553Z AUTO 21015KT 10SM CLR 06/M03 A3039 RMK AO2 SLP295 T00561028
Loading
Personal Weather Stations






























Interactive Weather Map New forecast layout! Learn more

10-Day Weather Forecast

Advertisements
Track Severe Weather on mobile